Roma, Italia

03:48 PM CEST del 30 Settembre 2014 (GMT +0200)
Ciampino | Change Station
CLOSE
Current Station
Stazione meteo personale
Location: Ciampino, LAZIO
Altitudine: 348 ft
Stazioni meteo nelle vicinanze

Alt. 348 ft 41.81 °N, 12.60 °E | Updated 2 minutes ago

Partly Cloudy
Parzialmente nuvoloso
81.9 °F
Sembra 82 °F
N
6.0
Vento Variabile Vento da SE
Gusts 10.7 mph

Oggi
Massima -- | Minima -- °F
--% Possibilità di precip.
Ieri
Massima -- | Minima -- °F
Precip. -- in
7:05 AM 6:53 PM
Luna crescente, 37% visible
Pressione 30.27 in
Visibilità 6.2 miglia
Nuvole Alcuni 2000 ft
Indice di calore 82 °F
Punto di rugiada 60 °F
Umidità 48%
Piovosità 0.00 in
Spessore del manto nevoso Non disponibile.
Raggi UV 4 fuori da 12
Polline Non disponibile.
Qualità dell'aria Non disponibile.
Flu Activity Non disponibile.
METAR LIRA 301315Z 15004KT 150V210 9999 FEW020 25/11 Q1025

More Conditions Fewer Conditions

Pressione 30.27 in
Visibilità 6.2 miglia
Nuvole Alcuni 2000 ft
Indice di calore 82 °F
Punto di rugiada 60 °F
Umidità 48%
Piovosità 0.00 in
Spessore del manto nevoso Non disponibile.
Raggi UV 4 fuori da 12
Polline Non disponibile.
Qualità dell'aria Non disponibile.
Flu Activity Non disponibile.
METAR LIRA 301315Z 15004KT 150V210 9999 FEW020 25/11 Q1025

More Conditions Fewer Conditions

10-Day Weather Forecast

Almanac

Astronomia

Sep. 30, 2014 Alba Tramonto
Ora attuale 07:05 CEST 18:53 CEST
Crepuscolo civile 06:37 CEST 19:21 CEST
Crepuscolo nautico 06:05 CEST 19:53 CEST
Crepuscolo astronomico 05:32 CEST 20:26 CEST
Luna 13:01 CEST 23:03 CEST
Estensione della luce visibile 12h 43m
Lunghezza del giorno
11h 48m
Tomorrow will be 2m 46s shorter.
Luna crescente, 37% of the Moon is Illuminated
Oggi
Luna crescente
Ott 1
Primo quarto
Ott 8
Luna piena
Ott 15
Ultimo quarto
Ott 23
Nuovo

Minime e massime di ieri

Massime Regione Minime Regione

Community

WunderPhotos

Upload Photos

1,757,636 foto caricate!

Nearby

Qualità dell'aria

Not available.

Profondità neve

Not available.

Attività sismica

Città  Distanza Mag. Data & Ora
Non sono state riportate attività sismiche nelle vicinanze.
Minimo Magnitudo Mostrato è 2.5.

Temperature delle acque costiere

Località Temperatura
Nessun dato dalle stazioni

Stazioni meteo nelle vicinanze